createdAt,value
2023-02-24T00:01:51.693Z,2.80
2023-02-24T00:04:21.636Z,2.80
2023-02-24T00:06:51.259Z,2.70
2023-02-24T00:09:21.789Z,2.70
2023-02-24T00:11:54.298Z,2.70
2023-02-24T00:14:23.148Z,2.70
2023-02-24T00:16:51.416Z,2.70
2023-02-24T00:19:21.155Z,2.70
2023-02-24T00:21:51.454Z,2.60
2023-02-24T00:24:19.929Z,2.60
2023-02-24T00:26:54.343Z,2.60
2023-02-24T00:29:22.957Z,2.50
2023-02-24T00:31:56.793Z,2.60
2023-02-24T00:34:25.092Z,2.50
2023-02-24T00:36:54.785Z,2.50
2023-02-24T00:39:30.092Z,2.50
2023-02-24T00:42:04.626Z,2.50
2023-02-24T00:44:34.798Z,2.50
2023-02-24T00:47:04.906Z,2.50
2023-02-24T00:49:33.959Z,2.50
2023-02-24T00:52:04.897Z,2.60
2023-02-24T00:54:36.321Z,2.60
2023-02-24T00:57:04.566Z,2.60
2023-02-24T00:59:32.655Z,2.50
2023-02-24T01:02:00.935Z,2.50
2023-02-24T01:04:29.385Z,2.50
2023-02-24T01:07:00.225Z,2.50
2023-02-24T01:09:33.401Z,2.40
2023-02-24T01:12:33.736Z,2.50
2023-02-24T01:15:05.040Z,2.40
2023-02-24T01:17:33.079Z,2.40
2023-02-24T01:20:16.070Z,2.50
2023-02-24T01:22:45.632Z,2.50
2023-02-24T01:25:15.146Z,2.50
2023-02-24T01:27:43.269Z,2.40
2023-02-24T01:30:15.913Z,2.40
2023-02-24T01:32:44.989Z,2.40
2023-02-24T01:35:14.277Z,2.40
2023-02-24T01:37:43.171Z,2.40
2023-02-24T01:40:21.607Z,2.40
2023-02-24T01:42:50.647Z,2.40
2023-02-24T01:45:25.073Z,2.30
2023-02-24T01:47:54.427Z,2.30
2023-02-24T01:50:26.130Z,2.30
2023-02-24T01:52:58.807Z,2.30
2023-02-24T01:55:32.033Z,2.30
2023-02-24T01:58:04.961Z,2.30
2023-02-24T02:00:39.433Z,2.30
2023-02-24T02:03:13.170Z,2.30
2023-02-24T02:05:42.286Z,2.30
2023-02-24T02:08:11.349Z,2.30
2023-02-24T02:10:44.168Z,2.20
2023-02-24T02:13:14.256Z,2.30
2023-02-24T02:15:56.245Z,2.20
2023-02-24T02:18:33.272Z,2.30
2023-02-24T02:21:26.813Z,2.30
2023-02-24T02:24:05.333Z,2.20
2023-02-24T02:27:10.890Z,2.40
2023-02-24T02:30:19.766Z,2.40
2023-02-24T02:33:27.401Z,2.40
2023-02-24T02:36:07.089Z,2.40
2023-02-24T02:38:43.150Z,2.40
2023-02-24T02:41:20.751Z,2.40
2023-02-24T02:43:52.562Z,2.30
2023-02-24T02:46:34.921Z,2.30
2023-02-24T02:49:13.667Z,2.30
2023-02-24T02:51:51.697Z,2.20
2023-02-24T02:54:27.153Z,2.20
2023-02-24T02:57:01.528Z,2.30
2023-02-24T02:59:32.179Z,2.20
2023-02-24T03:02:11.662Z,2.20
2023-02-24T03:04:43.310Z,2.20
2023-02-24T03:07:17.161Z,2.20
2023-02-24T03:09:49.576Z,2.20
2023-02-24T03:12:21.800Z,2.20
2023-02-24T03:14:53.412Z,2.20
2023-02-24T03:17:25.879Z,2.20
2023-02-24T03:20:00.976Z,2.20
2023-02-24T03:22:35.474Z,2.20
2023-02-24T03:25:06.105Z,2.20
2023-02-24T03:27:41.633Z,2.20
2023-02-24T03:30:16.968Z,2.20
2023-02-24T03:32:55.869Z,2.20
2023-02-24T03:35:27.323Z,2.20
2023-02-24T03:37:59.494Z,2.20
2023-02-24T03:40:29.873Z,2.20
2023-02-24T03:45:37.973Z,2.30
2023-02-24T03:48:07.856Z,2.20
2023-02-24T03:50:38.065Z,2.20
2023-02-24T03:53:22.473Z,2.30
2023-02-24T03:56:00.551Z,2.30
2023-02-24T03:58:39.817Z,2.30
2023-02-24T04:01:14.779Z,2.30
2023-02-24T04:03:50.340Z,2.40
2023-02-24T04:06:23.459Z,2.50
2023-02-24T04:09:01.259Z,2.60
2023-02-24T04:11:37.483Z,2.50
2023-02-24T04:14:09.566Z,2.50
2023-02-24T04:16:43.142Z,2.60
2023-02-24T04:19:15.241Z,2.60
2023-02-24T04:21:45.304Z,2.60
2023-02-24T04:24:16.073Z,2.60
2023-02-24T04:26:46.534Z,2.70
2023-02-24T04:29:20.860Z,2.70
2023-02-24T04:31:53.626Z,2.80
2023-02-24T04:34:22.823Z,2.80
2023-02-24T04:36:51.190Z,2.80
2023-02-24T04:39:23.371Z,2.90
2023-02-24T04:41:52.032Z,2.90
2023-02-24T04:44:22.049Z,2.90
2023-02-24T04:46:51.290Z,2.90
2023-02-24T04:49:20.689Z,2.90
2023-02-24T04:51:48.746Z,2.90
2023-02-24T04:54:18.345Z,3.00
2023-02-24T04:56:50.729Z,3.00
2023-02-24T04:59:19.853Z,3.00
2023-02-24T05:01:51.585Z,3.00
2023-02-24T05:04:20.140Z,3.00
2023-02-24T05:06:49.305Z,3.10
2023-02-24T05:09:19.036Z,3.00
2023-02-24T05:11:50.337Z,3.10
2023-02-24T05:14:21.249Z,3.10
2023-02-24T05:16:50.231Z,3.10
2023-02-24T05:19:37.613Z,3.10
2023-02-24T05:22:07.080Z,3.10
2023-02-24T05:24:35.441Z,3.10
2023-02-24T05:27:05.046Z,3.20
2023-02-24T05:29:35.698Z,3.20
2023-02-24T05:32:05.745Z,3.20
2023-02-24T05:34:34.825Z,3.20
2023-02-24T05:37:10.386Z,3.20
2023-02-24T05:39:38.550Z,3.30
2023-02-24T05:42:08.260Z,3.30
2023-02-24T05:44:37.646Z,3.30
2023-02-24T05:47:06.070Z,3.30
2023-02-24T05:49:36.037Z,3.30
2023-02-24T05:52:08.932Z,3.40
2023-02-24T05:54:40.214Z,3.40
2023-02-24T05:57:12.925Z,3.40
2023-02-24T05:59:42.051Z,3.40
2023-02-24T06:02:12.504Z,3.40
2023-02-24T06:04:50.809Z,3.50
2023-02-24T06:07:22.747Z,3.50
2023-02-24T06:09:53.868Z,3.50
2023-02-24T06:12:25.378Z,3.50
2023-02-24T06:14:53.768Z,3.50
2023-02-24T06:17:22.921Z,3.50
2023-02-24T06:19:52.725Z,3.60
2023-02-24T06:22:22.794Z,3.60
2023-02-24T06:24:51.768Z,3.60
2023-02-24T06:27:21.789Z,3.70
2023-02-24T06:29:52.624Z,3.70
2023-02-24T06:32:22.097Z,3.70
2023-02-24T06:34:51.676Z,3.70
2023-02-24T06:37:19.884Z,3.70
2023-02-24T06:39:48.097Z,3.70
2023-02-24T06:42:16.541Z,3.70
2023-02-24T06:44:45.337Z,3.80
2023-02-24T06:47:17.810Z,3.80
2023-02-24T06:49:45.870Z,3.80
2023-02-24T06:52:18.616Z,3.90
2023-02-24T06:54:48.889Z,3.90
2023-02-24T06:57:16.997Z,3.90
2023-02-24T06:59:46.112Z,3.90
2023-02-24T07:02:17.606Z,3.90
2023-02-24T07:04:45.857Z,3.90
2023-02-24T07:07:17.304Z,4.00
2023-02-24T07:09:45.776Z,4.00
2023-02-24T07:12:15.581Z,4.00
2023-02-24T07:14:44.062Z,4.00
2023-02-24T07:17:14.762Z,4.10
2023-02-24T07:19:44.300Z,4.10
2023-02-24T07:22:14.703Z,4.10
2023-02-24T07:24:46.358Z,4.10
2023-02-24T07:27:22.365Z,4.10
2023-02-24T07:29:53.376Z,4.20
2023-02-24T07:32:22.641Z,4.20
2023-02-24T07:34:53.268Z,4.20
2023-02-24T07:37:23.599Z,4.30
2023-02-24T07:39:51.787Z,4.30
2023-02-24T07:42:19.876Z,4.30
2023-02-24T07:44:49.211Z,4.30
2023-02-24T07:47:17.640Z,4.30
2023-02-24T07:49:45.907Z,4.40
2023-02-24T07:52:16.121Z,4.40
2023-02-24T07:54:44.364Z,4.50
2023-02-24T07:57:13.907Z,4.50
2023-02-24T07:59:47.182Z,4.50
2023-02-24T08:02:16.420Z,4.60
2023-02-24T08:04:50.084Z,4.60
2023-02-24T08:07:24.792Z,4.60
2023-02-24T08:10:14.239Z,4.70
2023-02-24T08:12:43.634Z,4.70
2023-02-24T08:15:23.837Z,4.70
2023-02-24T08:17:53.888Z,4.80
2023-02-24T08:20:22.655Z,4.80
2023-02-24T08:22:53.454Z,4.80
2023-02-24T08:25:35.299Z,4.90
2023-02-24T08:28:08.331Z,4.90
2023-02-24T08:30:45.395Z,4.90
2023-02-24T08:33:18.827Z,5.00
2023-02-24T08:35:46.912Z,5.00
2023-02-24T08:38:20.364Z,5.00
2023-02-24T08:40:55.769Z,5.10
2023-02-24T08:43:32.914Z,5.10
2023-02-24T08:46:04.654Z,5.20
2023-02-24T08:48:38.050Z,5.20
2023-02-24T08:51:10.407Z,5.30
2023-02-24T08:53:41.377Z,5.30
2023-02-24T08:56:12.539Z,5.40
2023-02-24T08:58:47.315Z,5.50
2023-02-24T09:01:24.471Z,5.60
2023-02-24T09:03:55.609Z,5.60
2023-02-24T09:06:27.572Z,5.60
2023-02-24T09:09:11.944Z,5.60
2023-02-24T09:11:44.075Z,5.60
2023-02-24T09:14:25.999Z,5.70
2023-02-24T09:17:03.816Z,5.70
2023-02-24T09:20:02.527Z,5.80
2023-02-24T09:22:33.023Z,5.80
2023-02-24T09:25:24.360Z,5.80
2023-02-24T09:27:56.073Z,5.90
2023-02-24T09:30:37.262Z,5.90
2023-02-24T09:33:21.652Z,5.90
2023-02-24T09:36:03.285Z,6.00
2023-02-24T09:39:08.397Z,6.00
2023-02-24T09:41:54.672Z,6.10
2023-02-24T09:44:29.788Z,6.10
2023-02-24T09:47:09.267Z,6.10
2023-02-24T09:49:56.696Z,6.20
2023-02-24T09:52:39.883Z,6.30
2023-02-24T09:55:26.220Z,6.30
2023-02-24T09:58:27.048Z,6.50
2023-02-24T10:01:21.233Z,6.50
2023-02-24T10:04:15.023Z,6.50
2023-02-24T10:06:50.709Z,6.60
2023-02-24T10:09:27.162Z,6.50
2023-02-24T10:12:04.636Z,6.60
2023-02-24T10:14:43.704Z,6.60
2023-02-24T10:17:30.730Z,6.60
2023-02-24T10:20:13.994Z,6.50
2023-02-24T10:22:52.612Z,6.60
2023-02-24T10:25:36.079Z,6.60
2023-02-24T10:28:16.267Z,6.50
2023-02-24T10:31:04.231Z,6.50
2023-02-24T10:33:39.093Z,6.40
2023-02-24T10:36:12.645Z,6.40
2023-02-24T10:38:45.558Z,6.40
2023-02-24T10:41:15.406Z,6.30
2023-02-24T10:43:56.099Z,6.20
2023-02-24T10:46:41.157Z,6.30
2023-02-24T10:49:16.935Z,6.30
2023-02-24T10:51:52.542Z,6.30
2023-02-24T10:54:34.639Z,6.30
2023-02-24T10:57:15.942Z,6.30
2023-02-24T11:00:06.775Z,6.30
2023-02-24T11:02:56.791Z,6.30
2023-02-24T11:05:38.683Z,6.20
2023-02-24T11:08:26.242Z,6.30
2023-02-24T11:10:58.800Z,6.30
2023-02-24T11:13:45.576Z,6.30
2023-02-24T11:16:31.331Z,6.20
2023-02-24T11:19:00.716Z,6.30
2023-02-24T11:21:29.371Z,6.30
2023-02-24T11:24:02.910Z,6.30
2023-02-24T11:26:36.796Z,6.30
2023-02-24T11:29:24.273Z,6.40
2023-02-24T11:32:11.626Z,6.40
2023-02-24T11:34:49.695Z,6.50
2023-02-24T11:37:34.466Z,6.50
2023-02-24T11:40:07.494Z,6.50
2023-02-24T11:42:42.015Z,6.50
2023-02-24T11:45:22.703Z,6.50
2023-02-24T11:47:55.478Z,6.50
2023-02-24T11:53:29.719Z,6.50
2023-02-24T11:56:03.400Z,6.50
2023-02-24T11:58:41.407Z,6.50
2023-02-24T12:01:16.078Z,6.40
2023-02-24T12:03:53.739Z,6.40
2023-02-24T12:06:27.544Z,6.40
2023-02-24T12:09:03.960Z,6.50
2023-02-24T12:11:41.675Z,6.50
2023-02-24T12:14:23.403Z,6.60
2023-02-24T12:16:59.908Z,6.60
2023-02-24T12:19:34.472Z,6.70
2023-02-24T12:22:07.676Z,6.80
2023-02-24T12:24:38.115Z,6.90
2023-02-24T12:27:18.398Z,6.90
2023-02-24T12:30:06.440Z,7.00
2023-02-24T12:32:48.486Z,7.10
2023-02-24T12:35:21.670Z,7.30
2023-02-24T12:38:05.754Z,7.40
2023-02-24T12:40:48.262Z,7.60
2023-02-24T12:43:28.593Z,7.80
2023-02-24T12:46:05.529Z,7.90
2023-02-24T12:48:54.819Z,8.30
2023-02-24T12:51:29.666Z,8.40
2023-02-24T12:54:04.439Z,8.40
2023-02-24T12:56:42.137Z,8.30
2023-02-24T12:59:15.816Z,8.20
2023-02-24T13:01:52.664Z,8.20
2023-02-24T13:04:38.128Z,8.10
2023-02-24T13:07:20.503Z,8.10
2023-02-24T13:09:56.006Z,8.10
2023-02-24T13:12:34.983Z,8.20
2023-02-24T13:15:05.588Z,8.20
2023-02-24T13:17:33.864Z,8.20
2023-02-24T13:20:12.334Z,8.20
2023-02-24T13:22:43.653Z,8.20
2023-02-24T13:25:31.869Z,8.20
2023-02-24T13:28:03.829Z,8.20
2023-02-24T13:30:42.181Z,8.20
2023-02-24T13:33:29.522Z,8.20
2023-02-24T13:36:13.587Z,8.30
2023-02-24T13:38:43.923Z,8.70
2023-02-24T13:41:38.325Z,8.90
2023-02-24T13:47:37.101Z,9.10
2023-02-24T13:50:20.970Z,9.10
2023-02-24T13:53:04.057Z,9.40
2023-02-24T13:55:48.070Z,9.80
2023-02-24T13:58:42.346Z,9.70
2023-02-24T14:01:12.726Z,9.40
2023-02-24T14:03:45.184Z,9.20
2023-02-24T14:06:21.861Z,8.90
2023-02-24T14:08:54.433Z,8.80
2023-02-24T14:11:28.436Z,8.80
2023-02-24T14:13:58.866Z,8.70
2023-02-24T14:16:31.596Z,8.70
2023-02-24T14:19:03.076Z,8.60
2023-02-24T14:21:34.608Z,8.50
2023-02-24T14:24:06.336Z,8.00
2023-02-24T14:26:46.753Z,7.70
2023-02-24T14:29:18.783Z,7.70
2023-02-24T14:31:53.430Z,7.70
2023-02-24T14:34:25.507Z,7.90
2023-02-24T14:36:56.804Z,8.00
2023-02-24T14:39:27.077Z,7.90
2023-02-24T14:42:11.876Z,8.00
2023-02-24T14:44:43.662Z,8.20
2023-02-24T14:47:15.446Z,8.20
2023-02-24T14:49:54.375Z,8.30
2023-02-24T14:52:34.347Z,8.30
2023-02-24T14:55:07.350Z,8.40
2023-02-24T14:57:40.545Z,8.40
2023-02-24T15:00:17.636Z,8.30
2023-02-24T15:02:52.945Z,8.40
2023-02-24T15:05:22.966Z,8.40
2023-02-24T15:07:52.042Z,8.40
2023-02-24T15:10:24.353Z,8.30
2023-02-24T15:12:59.707Z,8.20
2023-02-24T15:15:34.285Z,8.20
2023-02-24T15:18:11.197Z,8.20
2023-02-24T15:20:42.290Z,8.20
2023-02-24T15:23:27.563Z,8.10
2023-02-24T15:25:56.069Z,8.20
2023-02-24T15:28:26.892Z,8.20
2023-02-24T15:31:03.288Z,8.20
2023-02-24T15:33:37.397Z,8.10
2023-02-24T15:36:12.390Z,8.20
2023-02-24T15:38:43.383Z,8.30
2023-02-24T15:41:13.964Z,8.30
2023-02-24T15:43:50.295Z,8.30
2023-02-24T15:46:26.173Z,8.40
2023-02-24T15:48:57.634Z,8.30
2023-02-24T15:51:35.537Z,8.30
2023-02-24T15:54:06.037Z,8.30
2023-02-24T15:56:37.081Z,8.20
2023-02-24T15:59:06.163Z,8.20
2023-02-24T16:01:35.256Z,8.10
2023-02-24T16:04:04.901Z,8.10
2023-02-24T16:06:36.131Z,8.00
2023-02-24T16:09:05.410Z,8.00
2023-02-24T16:11:39.727Z,8.00
2023-02-24T16:14:14.169Z,8.00
2023-02-24T16:16:44.204Z,8.00
2023-02-24T16:19:14.809Z,7.90
2023-02-24T16:21:45.339Z,7.90
2023-02-24T16:24:14.036Z,7.80
2023-02-24T16:26:42.297Z,7.80
2023-02-24T16:29:15.201Z,7.70
2023-02-24T16:31:43.832Z,7.70
2023-02-24T16:34:15.818Z,7.60
2023-02-24T16:36:45.315Z,7.50
2023-02-24T16:39:14.784Z,7.50
2023-02-24T16:41:42.814Z,7.40
2023-02-24T16:44:11.438Z,7.30
2023-02-24T16:46:41.399Z,7.30
2023-02-24T16:49:14.584Z,7.20
2023-02-24T16:51:42.665Z,7.20
2023-02-24T16:54:12.098Z,7.20
2023-02-24T16:56:40.134Z,7.20
2023-02-24T16:59:08.256Z,7.20
2023-02-24T17:01:36.473Z,7.10
2023-02-24T17:04:09.659Z,7.10
2023-02-24T17:06:37.796Z,7.10
2023-02-24T17:09:05.904Z,7.10
2023-02-24T17:11:35.372Z,7.10
2023-02-24T17:14:03.433Z,7.10
2023-02-24T17:16:31.585Z,7.00
2023-02-24T17:18:59.679Z,7.00
2023-02-24T17:21:27.787Z,6.90
2023-02-24T17:23:55.848Z,6.80
2023-02-24T17:26:24.070Z,6.80
2023-02-24T17:28:53.597Z,6.70
2023-02-24T17:31:22.894Z,6.60
2023-02-24T17:33:51.134Z,6.60
2023-02-24T17:36:19.603Z,6.60
2023-02-24T17:38:47.802Z,6.50
2023-02-24T17:41:15.950Z,6.50
2023-02-24T17:43:43.986Z,6.40
2023-02-24T17:46:13.450Z,6.40
2023-02-24T17:48:41.565Z,6.30
2023-02-24T17:51:14.132Z,6.30
2023-02-24T17:53:42.183Z,6.30
2023-02-24T17:56:11.024Z,6.30
2023-02-24T17:58:39.921Z,6.30
2023-02-24T18:01:08.144Z,6.40
2023-02-24T18:03:37.810Z,6.50
2023-02-24T18:06:08.423Z,6.50
2023-02-24T18:08:37.304Z,6.50
2023-02-24T18:11:06.907Z,6.50
2023-02-24T18:13:35.362Z,6.50
2023-02-24T18:16:08.483Z,6.50
2023-02-24T18:18:38.042Z,6.50
2023-02-24T18:21:08.485Z,6.40
2023-02-24T18:23:38.215Z,6.40
2023-02-24T18:26:08.465Z,6.30
2023-02-24T18:28:37.169Z,6.20
2023-02-24T18:31:12.561Z,6.20
2023-02-24T18:33:42.266Z,6.10
2023-02-24T18:36:11.481Z,6.10
2023-02-24T18:38:39.860Z,6.00
2023-02-24T18:41:09.510Z,6.00
2023-02-24T18:43:38.202Z,6.00
2023-02-24T18:46:08.451Z,6.00
2023-02-24T18:48:36.567Z,5.90
2023-02-24T18:51:06.265Z,5.90
2023-02-24T18:53:36.824Z,5.90
2023-02-24T18:56:06.722Z,5.80
2023-02-24T18:58:37.023Z,5.80
2023-02-24T19:01:12.284Z,5.70
2023-02-24T19:03:40.349Z,5.70
2023-02-24T19:06:10.448Z,5.60
2023-02-24T19:08:39.787Z,5.60
2023-02-24T19:11:10.064Z,5.60
2023-02-24T19:13:38.239Z,5.50
2023-02-24T19:16:07.653Z,5.50
2023-02-24T19:18:36.201Z,5.50
2023-02-24T19:21:06.763Z,5.40
2023-02-24T19:23:36.984Z,5.30
2023-02-24T19:26:05.211Z,5.30
2023-02-24T19:28:33.341Z,5.30
2023-02-24T19:31:01.707Z,5.30
2023-02-24T19:33:29.782Z,5.30
2023-02-24T19:35:59.527Z,5.30
2023-02-24T19:38:28.428Z,5.40
2023-02-24T19:41:00.298Z,5.40
2023-02-24T19:43:28.681Z,5.40
2023-02-24T19:45:56.790Z,5.40
2023-02-24T19:48:24.952Z,5.40
2023-02-24T19:50:53.062Z,5.40
2023-02-24T19:53:21.111Z,5.40
2023-02-24T19:55:50.277Z,5.40
2023-02-24T19:58:19.749Z,5.50
2023-02-24T20:00:48.308Z,5.50
2023-02-24T20:03:17.106Z,5.50
2023-02-24T20:05:45.215Z,5.40
2023-02-24T20:08:13.350Z,5.40
2023-02-24T20:10:41.433Z,5.40
2023-02-24T20:13:09.501Z,5.30
2023-02-24T20:15:39.114Z,5.30
2023-02-24T20:18:08.813Z,5.30
2023-02-24T20:20:37.353Z,5.30
2023-02-24T20:23:05.765Z,5.30
2023-02-24T20:25:33.813Z,5.30
2023-02-24T20:28:02.755Z,5.40
2023-02-24T20:30:30.807Z,5.40
2023-02-24T20:33:00.276Z,5.40
2023-02-24T20:35:28.505Z,5.50
2023-02-24T20:37:56.549Z,5.50
2023-02-24T20:40:24.631Z,5.50
2023-02-24T20:42:52.657Z,5.50
2023-02-24T20:45:20.519Z,5.50
2023-02-24T20:47:48.680Z,5.50
2023-02-24T20:50:18.324Z,5.60
2023-02-24T20:52:46.477Z,5.60
2023-02-24T20:55:14.500Z,5.60
2023-02-24T20:57:42.568Z,5.60
2023-02-24T21:00:11.777Z,5.60
2023-02-24T21:02:41.190Z,5.60
2023-02-24T21:05:10.322Z,5.60
2023-02-24T21:07:40.064Z,5.60
2023-02-24T21:10:08.621Z,5.60
2023-02-24T21:12:36.723Z,5.60
2023-02-24T21:15:06.336Z,5.60
2023-02-24T21:17:34.754Z,5.60
2023-02-24T21:20:02.987Z,5.60
2023-02-24T21:22:31.957Z,5.60
2023-02-24T21:25:01.474Z,5.60
2023-02-24T21:27:29.612Z,5.60
2023-02-24T21:29:57.672Z,5.60
2023-02-24T21:32:25.864Z,5.60
2023-02-24T21:34:53.951Z,5.50
2023-02-24T21:37:22.074Z,5.50
2023-02-24T21:39:50.187Z,5.40
2023-02-24T21:42:19.634Z,5.40
2023-02-24T21:44:47.909Z,5.30
2023-02-24T21:47:15.982Z,5.30
2023-02-24T21:49:44.092Z,5.30
2023-02-24T21:52:12.202Z,5.30
2023-02-24T21:54:42.260Z,5.20
2023-02-24T21:57:10.426Z,5.20
2023-02-24T21:59:39.841Z,5.20
2023-02-24T22:02:08.288Z,5.10
2023-02-24T22:04:36.366Z,5.10
2023-02-24T22:07:04.473Z,5.10
2023-02-24T22:09:33.036Z,5.10
2023-02-24T22:12:01.150Z,5.00
2023-02-24T22:14:29.192Z,4.90
2023-02-24T22:16:58.831Z,4.90
2023-02-24T22:19:27.141Z,4.80
2023-02-24T22:21:55.224Z,4.80
2023-02-24T22:24:23.323Z,4.70
2023-02-24T22:26:51.662Z,4.70
2023-02-24T22:29:19.836Z,4.60
2023-02-24T22:31:49.798Z,4.60
2023-02-24T22:34:19.419Z,4.50
2023-02-24T22:36:47.524Z,4.50
2023-02-24T22:39:17.012Z,4.40
2023-02-24T22:41:45.592Z,4.30
2023-02-24T22:44:14.379Z,4.30
2023-02-24T22:46:42.479Z,4.20
2023-02-24T22:49:11.317Z,4.20
2023-02-24T22:51:42.214Z,4.10
2023-02-24T22:54:10.335Z,4.10
2023-02-24T22:56:38.564Z,4.00
2023-02-24T22:59:06.702Z,4.00
2023-02-24T23:01:36.892Z,4.00
2023-02-24T23:04:07.022Z,3.90
2023-02-24T23:06:36.557Z,3.90
2023-02-24T23:09:06.457Z,3.90
2023-02-24T23:11:38.535Z,3.80
2023-02-24T23:14:09.950Z,3.80
2023-02-24T23:16:39.364Z,3.80
2023-02-24T23:19:10.611Z,3.80
2023-02-24T23:21:40.886Z,3.80
2023-02-24T23:24:13.879Z,3.80
2023-02-24T23:26:43.841Z,3.70
2023-02-24T23:29:14.386Z,3.70
2023-02-24T23:31:43.116Z,3.70
2023-02-24T23:34:12.188Z,3.70
2023-02-24T23:36:41.842Z,3.70
2023-02-24T23:39:12.560Z,3.70
2023-02-24T23:41:42.092Z,3.70
2023-02-24T23:44:10.586Z,3.70
2023-02-24T23:46:38.861Z,3.80
2023-02-24T23:49:07.590Z,3.80
2023-02-24T23:51:47.584Z,3.80
2023-02-24T23:54:18.505Z,3.90
2023-02-24T23:56:46.974Z,4.00
2023-02-24T23:59:15.436Z,4.00
